createdAt,value
2019-03-10T00:01:42.139Z,23.12
2019-03-10T00:04:13.349Z,29.60
2019-03-10T00:06:44.607Z,24.00
2019-03-10T00:09:15.821Z,29.67
2019-03-10T00:11:47.044Z,26.37
2019-03-10T00:14:18.211Z,23.38
2019-03-10T00:16:49.395Z,22.37
2019-03-10T00:19:20.596Z,22.32
2019-03-10T00:21:51.867Z,25.80
2019-03-10T00:24:23.087Z,26.97
2019-03-10T00:26:54.286Z,24.92
2019-03-10T00:29:25.610Z,24.25
2019-03-10T00:31:56.824Z,26.15
2019-03-10T00:34:29.590Z,24.15
2019-03-10T00:37:00.876Z,28.87
2019-03-10T00:39:58.669Z,22.30
2019-03-10T00:43:01.721Z,24.05
2019-03-10T00:46:05.431Z,21.65
2019-03-10T00:49:02.189Z,26.23
2019-03-10T00:51:42.354Z,22.02
2019-03-10T00:54:13.611Z,21.13
2019-03-10T00:56:45.415Z,21.48
2019-03-10T00:59:18.263Z,24.20
2019-03-10T01:01:49.980Z,20.55
2019-03-10T01:06:53.735Z,23.55
2019-03-10T01:09:25.131Z,23.05
2019-03-10T01:11:56.257Z,23.07
2019-03-10T01:14:28.994Z,28.65
2019-03-10T01:17:01.460Z,23.32
2019-03-10T01:19:34.340Z,21.45
2019-03-10T01:22:05.537Z,23.85
2019-03-10T01:24:39.319Z,20.27
2019-03-10T01:27:10.478Z,21.70
2019-03-10T01:29:41.654Z,23.60
2019-03-10T01:32:25.134Z,17.15
2019-03-10T01:35:08.616Z,21.65
2019-03-10T01:37:39.712Z,19.45
2019-03-10T01:40:10.851Z,19.67
2019-03-10T01:45:13.077Z,18.60
2019-03-10T01:47:44.182Z,16.17
2019-03-10T01:50:15.353Z,17.75
2019-03-10T01:52:46.491Z,19.60
2019-03-10T01:55:18.932Z,18.85
2019-03-10T01:57:50.095Z,17.45
2019-03-10T02:00:21.369Z,20.15
2019-03-10T02:02:52.499Z,15.58
2019-03-10T02:05:24.945Z,17.52
2019-03-10T02:07:56.130Z,20.25
2019-03-10T02:10:27.244Z,19.82
2019-03-10T02:15:29.850Z,18.12
2019-03-10T02:18:00.996Z,18.92
2019-03-10T02:20:32.201Z,15.50
2019-03-10T02:23:03.362Z,15.60
2019-03-10T02:25:35.026Z,15.43
2019-03-10T02:28:07.767Z,19.77
2019-03-10T02:30:38.944Z,17.82
2019-03-10T02:33:10.087Z,17.77
2019-03-10T02:35:41.231Z,15.55
2019-03-10T02:38:12.384Z,20.35
2019-03-10T02:40:44.371Z,17.80
2019-03-10T02:43:15.535Z,16.75
2019-03-10T02:45:46.771Z,16.35
2019-03-10T02:48:18.058Z,18.10
2019-03-10T02:50:49.168Z,21.25
2019-03-10T02:53:20.480Z,17.70
2019-03-10T02:55:51.758Z,16.42
2019-03-10T02:58:22.919Z,17.87
2019-03-10T03:00:54.065Z,17.82
2019-03-10T03:03:25.237Z,20.52
2019-03-10T03:05:56.510Z,16.20
2019-03-10T03:08:27.668Z,16.37
2019-03-10T03:11:00.337Z,15.80
2019-03-10T03:13:31.862Z,21.80
2019-03-10T03:16:03.018Z,21.73
2019-03-10T03:18:34.191Z,18.12
2019-03-10T03:21:05.445Z,17.60
2019-03-10T03:23:36.565Z,16.95
2019-03-10T03:28:38.174Z,19.95
2019-03-10T03:31:11.025Z,17.87
2019-03-10T03:33:42.056Z,20.23
2019-03-10T03:36:22.000Z,18.35
2019-03-10T03:38:59.164Z,20.90
2019-03-10T03:41:30.364Z,23.62
2019-03-10T03:44:01.527Z,17.95
2019-03-10T03:46:32.691Z,19.77
2019-03-10T03:49:07.325Z,20.17
2019-03-10T03:51:38.631Z,18.45
2019-03-10T03:54:09.861Z,17.05
2019-03-10T03:56:41.065Z,19.25
2019-03-10T03:59:13.717Z,17.35
2019-03-10T04:01:47.494Z,18.82
2019-03-10T04:04:18.705Z,17.27
2019-03-10T04:06:49.922Z,22.32
2019-03-10T04:09:21.086Z,25.05
2019-03-10T04:11:52.391Z,18.07
2019-03-10T04:14:23.571Z,19.82
2019-03-10T04:16:56.294Z,20.20
2019-03-10T04:19:27.867Z,17.95
2019-03-10T04:21:59.354Z,17.15
2019-03-10T04:24:30.860Z,20.43
2019-03-10T04:27:02.171Z,15.93
2019-03-10T04:29:33.287Z,18.60
2019-03-10T04:32:04.438Z,19.80
2019-03-10T04:34:35.633Z,17.12
2019-03-10T04:37:08.446Z,19.73
2019-03-10T04:39:39.573Z,21.00
2019-03-10T04:42:10.718Z,17.52
2019-03-10T04:44:41.879Z,18.75
2019-03-10T04:47:13.103Z,20.00
2019-03-10T04:49:44.729Z,17.52
2019-03-10T04:52:15.920Z,18.40
2019-03-10T04:54:57.676Z,16.85
2019-03-10T04:57:28.944Z,18.70
2019-03-10T05:00:02.813Z,21.52
2019-03-10T05:02:34.195Z,16.67
2019-03-10T05:05:06.967Z,20.08
2019-03-10T05:07:39.021Z,18.57
2019-03-10T05:10:11.515Z,19.00
2019-03-10T05:12:42.736Z,17.77
2019-03-10T05:15:13.857Z,18.55
2019-03-10T05:17:45.025Z,18.98
2019-03-10T05:20:16.248Z,15.35
2019-03-10T05:22:47.452Z,19.98
2019-03-10T05:25:22.507Z,17.37
2019-03-10T05:27:53.729Z,19.27
2019-03-10T05:30:24.890Z,17.17
2019-03-10T05:32:57.267Z,16.70
2019-03-10T05:35:28.412Z,18.65
2019-03-10T05:37:59.702Z,20.35
2019-03-10T05:40:30.865Z,19.00
2019-03-10T05:43:02.007Z,16.35
2019-03-10T05:45:34.044Z,19.17
2019-03-10T05:48:06.375Z,17.75
2019-03-10T05:50:37.518Z,16.35
2019-03-10T05:53:08.707Z,20.80
2019-03-10T05:55:40.982Z,18.15
2019-03-10T05:58:13.731Z,19.23
2019-03-10T06:00:44.871Z,19.85
2019-03-10T06:03:16.085Z,20.10
2019-03-10T06:05:47.322Z,16.70
2019-03-10T06:08:18.588Z,21.37
2019-03-10T06:10:51.245Z,20.72
2019-03-10T06:13:24.641Z,20.55
2019-03-10T06:15:56.402Z,20.27
2019-03-10T06:18:27.599Z,18.42
2019-03-10T06:20:58.735Z,23.55
2019-03-10T06:23:31.316Z,18.73
2019-03-10T06:26:03.384Z,20.52
2019-03-10T06:28:34.508Z,21.17
2019-03-10T06:31:06.122Z,20.23
2019-03-10T06:33:37.382Z,18.70
2019-03-10T06:36:10.050Z,20.10
2019-03-10T06:38:41.369Z,18.92
2019-03-10T06:41:12.560Z,15.58
2019-03-10T06:43:43.851Z,19.48
2019-03-10T06:46:15.109Z,17.42
2019-03-10T06:48:46.662Z,18.95
2019-03-10T06:51:19.658Z,18.45
2019-03-10T06:53:50.920Z,18.55
2019-03-10T06:56:23.641Z,18.62
2019-03-10T06:58:54.863Z,18.05
2019-03-10T07:01:26.048Z,21.37
2019-03-10T07:03:58.249Z,18.27
2019-03-10T07:06:29.399Z,18.02
2019-03-10T07:09:00.853Z,16.77
2019-03-10T07:11:35.867Z,18.07
2019-03-10T07:14:07.204Z,19.07
2019-03-10T07:16:38.387Z,14.58
2019-03-10T07:19:10.442Z,17.37
2019-03-10T07:21:42.896Z,14.03
2019-03-10T07:24:14.088Z,15.80
2019-03-10T07:26:45.269Z,14.50
2019-03-10T07:29:23.828Z,13.25
2019-03-10T07:31:56.551Z,13.78
2019-03-10T07:34:30.215Z,12.28
2019-03-10T07:37:11.130Z,14.33
2019-03-10T07:39:49.621Z,13.08
2019-03-10T07:42:23.542Z,15.40
2019-03-10T07:44:59.483Z,17.55
2019-03-10T07:47:45.764Z,13.68
2019-03-10T07:50:24.424Z,11.50
2019-03-10T07:53:05.996Z,13.05
2019-03-10T07:55:44.713Z,12.47
2019-03-10T07:58:17.468Z,14.35
2019-03-10T08:00:55.776Z,13.90
2019-03-10T08:03:44.738Z,13.53
2019-03-10T08:06:23.248Z,8.50
2019-03-10T08:09:12.238Z,11.65
2019-03-10T08:12:01.102Z,8.50
2019-03-10T08:14:40.134Z,11.15
2019-03-10T08:17:24.792Z,10.38
2019-03-10T08:20:03.570Z,9.25
2019-03-10T08:22:54.519Z,11.33
2019-03-10T08:25:43.587Z,9.03
2019-03-10T08:28:34.577Z,8.28
2019-03-10T08:31:25.297Z,10.03
2019-03-10T08:33:58.080Z,7.28
2019-03-10T08:36:37.548Z,8.83
2019-03-10T08:39:26.647Z,9.05
2019-03-10T08:42:19.444Z,6.70
2019-03-10T08:44:56.208Z,6.83
2019-03-10T08:47:38.693Z,5.83
2019-03-10T08:50:11.452Z,5.05
2019-03-10T08:52:44.172Z,4.40
2019-03-10T08:55:35.229Z,4.67
2019-03-10T08:58:11.936Z,9.43
2019-03-10T09:01:03.035Z,4.17
2019-03-10T09:03:54.076Z,5.62
2019-03-10T09:06:38.872Z,4.58
2019-03-10T09:09:17.639Z,4.30
2019-03-10T09:11:50.578Z,4.83
2019-03-10T09:14:35.624Z,4.50
2019-03-10T09:17:15.636Z,6.42
2019-03-10T09:19:48.372Z,7.70
2019-03-10T09:22:26.992Z,7.55
2019-03-10T09:25:18.035Z,6.92
2019-03-10T09:27:56.959Z,9.53
2019-03-10T09:30:38.470Z,10.40
2019-03-10T09:33:17.393Z,8.60
2019-03-10T09:35:50.121Z,9.90
2019-03-10T09:38:22.856Z,11.28
2019-03-10T09:40:59.584Z,11.57
2019-03-10T09:43:35.217Z,8.85
2019-03-10T09:46:13.666Z,10.78
2019-03-10T09:48:46.413Z,8.28
2019-03-10T09:51:22.101Z,10.10
2019-03-10T09:54:03.924Z,10.32
2019-03-10T09:56:38.436Z,9.23
2019-03-10T09:59:13.974Z,8.83
2019-03-10T10:01:51.572Z,12.00
2019-03-10T10:04:41.536Z,8.60
2019-03-10T10:07:14.440Z,10.50
2019-03-10T10:09:56.088Z,10.55
2019-03-10T10:12:29.532Z,14.93
2019-03-10T10:15:05.075Z,6.30
2019-03-10T10:17:49.889Z,4.35
2019-03-10T10:20:34.585Z,7.37
2019-03-10T10:23:23.387Z,3.77
2019-03-10T10:25:58.820Z,3.20
2019-03-10T10:28:37.324Z,2.67
2019-03-10T10:31:25.078Z,2.95
2019-03-10T10:34:01.151Z,3.17
2019-03-10T10:36:42.681Z,4.28
2019-03-10T10:40:12.158Z,3.33
2019-03-10T10:43:01.953Z,3.98
2019-03-10T10:45:34.695Z,5.30
2019-03-10T10:48:07.585Z,3.45
2019-03-10T10:50:55.505Z,2.85
2019-03-10T10:53:28.188Z,2.10
2019-03-10T10:56:14.452Z,1.92
2019-03-10T10:58:56.177Z,2.45
2019-03-10T11:01:31.618Z,1.75
2019-03-10T11:04:16.589Z,1.92
2019-03-10T11:06:51.051Z,2.50
2019-03-10T11:09:23.909Z,1.92
2019-03-10T11:12:05.670Z,2.20
2019-03-10T11:14:44.437Z,2.65
2019-03-10T11:17:28.964Z,1.90
2019-03-10T11:20:20.339Z,3.85
2019-03-10T11:23:09.788Z,3.05
2019-03-10T11:25:56.858Z,2.37
2019-03-10T11:28:29.608Z,1.55
2019-03-10T11:31:06.863Z,2.00
2019-03-10T11:33:46.051Z,3.62
2019-03-10T11:36:35.099Z,4.65
2019-03-10T11:39:24.705Z,1.40
2019-03-10T11:44:37.243Z,4.12
2019-03-10T11:47:16.168Z,1.47
2019-03-10T11:49:58.103Z,1.37
2019-03-10T11:52:30.836Z,2.80
2019-03-10T11:55:10.029Z,4.95
2019-03-10T11:57:42.749Z,4.30
2019-03-10T12:00:33.714Z,2.33
2019-03-10T12:03:22.891Z,5.67
2019-03-10T12:05:58.670Z,15.80
2019-03-10T12:08:46.740Z,4.53
2019-03-10T12:11:18.875Z,2.67
2019-03-10T12:13:50.052Z,3.60
2019-03-10T12:16:21.284Z,2.92
2019-03-10T12:18:53.702Z,3.67
2019-03-10T12:21:24.925Z,1.47
2019-03-10T12:23:56.101Z,1.67
2019-03-10T12:26:27.236Z,1.95
2019-03-10T12:28:58.406Z,2.20
2019-03-10T12:31:29.616Z,3.95
2019-03-10T12:34:01.086Z,3.77
2019-03-10T12:36:32.249Z,2.67
2019-03-10T12:39:09.851Z,2.62
2019-03-10T12:41:43.247Z,3.20
2019-03-10T12:44:14.462Z,5.45
2019-03-10T12:46:46.967Z,2.87
2019-03-10T12:49:18.163Z,5.17
2019-03-10T12:51:49.322Z,2.20
2019-03-10T12:54:21.301Z,5.10
2019-03-10T12:56:52.463Z,3.10
2019-03-10T12:59:23.722Z,2.37
2019-03-10T13:01:55.461Z,5.42
2019-03-10T13:04:26.627Z,4.85
2019-03-10T13:06:58.136Z,3.22
2019-03-10T13:09:30.318Z,2.40
2019-03-10T13:12:03.528Z,4.05
2019-03-10T13:14:36.265Z,7.17
2019-03-10T13:17:08.071Z,3.00
2019-03-10T13:19:39.193Z,5.65
2019-03-10T13:22:10.395Z,2.45
2019-03-10T13:27:11.895Z,6.53
2019-03-10T13:29:44.802Z,4.60
2019-03-10T13:32:17.099Z,5.08
2019-03-10T13:34:50.443Z,6.25
2019-03-10T13:37:23.154Z,3.72
2019-03-10T13:39:54.274Z,4.50
2019-03-10T13:42:27.031Z,4.55
2019-03-10T13:44:59.819Z,5.85
2019-03-10T13:47:31.025Z,7.55
2019-03-10T13:50:02.249Z,5.35
2019-03-10T13:52:33.457Z,4.70
2019-03-10T13:55:06.504Z,6.17
2019-03-10T13:57:38.074Z,8.33
2019-03-10T14:00:23.897Z,8.95
2019-03-10T14:02:55.643Z,6.70
2019-03-10T14:05:26.944Z,10.45
2019-03-10T14:07:59.086Z,40.63
2019-03-10T14:10:36.854Z,10.23
2019-03-10T14:13:09.094Z,5.47
2019-03-10T14:15:40.298Z,6.45
2019-03-10T14:18:11.434Z,4.25
2019-03-10T14:20:42.963Z,8.13
2019-03-10T14:23:14.194Z,5.20
2019-03-10T14:25:48.584Z,6.25
2019-03-10T14:28:22.064Z,9.45
2019-03-10T14:30:54.295Z,4.60
2019-03-10T14:33:27.487Z,7.10
2019-03-10T14:35:59.605Z,10.43
2019-03-10T14:38:32.737Z,5.10
2019-03-10T14:41:06.194Z,5.83
2019-03-10T14:43:37.866Z,4.87
2019-03-10T14:46:09.490Z,6.00
2019-03-10T14:48:42.197Z,4.83
2019-03-10T14:51:14.788Z,9.28
2019-03-10T14:53:45.928Z,4.62
2019-03-10T14:56:17.101Z,4.50
2019-03-10T14:58:49.887Z,7.87
2019-03-10T15:01:22.375Z,3.55
2019-03-10T15:03:53.780Z,4.22
2019-03-10T15:06:26.474Z,5.35
2019-03-10T15:08:57.641Z,8.15
2019-03-10T15:11:29.211Z,6.08
2019-03-10T15:14:00.281Z,4.50
2019-03-10T15:16:31.598Z,8.25
2019-03-10T15:19:03.272Z,8.88
2019-03-10T15:21:34.537Z,2.92
2019-03-10T15:24:07.222Z,6.53
2019-03-10T15:26:45.683Z,10.28
2019-03-10T15:29:11.292Z,8.90
2019-03-10T15:31:42.580Z,5.95
2019-03-10T15:34:14.379Z,10.03
2019-03-10T15:36:45.517Z,8.63
2019-03-10T15:39:18.048Z,5.75
2019-03-10T15:41:50.858Z,5.45
2019-03-10T15:44:22.057Z,4.58
2019-03-10T15:46:54.762Z,5.47
2019-03-10T15:49:26.451Z,3.92
2019-03-10T15:52:00.712Z,5.15
2019-03-10T15:54:34.946Z,7.00
2019-03-10T15:57:06.220Z,12.75
2019-03-10T15:59:39.106Z,7.42
2019-03-10T16:02:10.684Z,4.97
2019-03-10T16:04:44.015Z,4.42
2019-03-10T16:07:15.159Z,8.98
2019-03-10T16:09:46.315Z,10.55
2019-03-10T16:12:17.496Z,4.70
2019-03-10T16:14:48.643Z,6.72
2019-03-10T16:17:19.954Z,8.43
2019-03-10T16:19:51.619Z,12.53
2019-03-10T16:22:22.772Z,7.97
2019-03-10T16:24:53.955Z,7.03
2019-03-10T16:27:26.762Z,4.53
2019-03-10T16:29:59.464Z,9.43
2019-03-10T16:32:30.599Z,12.20
2019-03-10T16:35:03.114Z,9.93
2019-03-10T16:37:34.253Z,4.90
2019-03-10T16:40:14.590Z,6.22
2019-03-10T16:42:48.014Z,15.03
2019-03-10T16:45:27.780Z,8.05
2019-03-10T16:47:58.892Z,10.82
2019-03-10T16:50:30.481Z,8.98
2019-03-10T16:53:01.710Z,11.15
2019-03-10T16:55:32.819Z,9.50
2019-03-10T17:00:34.444Z,8.15
2019-03-10T17:03:57.561Z,10.65
2019-03-10T17:06:29.891Z,12.73
2019-03-10T17:09:04.568Z,11.43
2019-03-10T17:11:38.582Z,9.73
2019-03-10T17:14:10.555Z,9.60
2019-03-10T17:16:41.729Z,7.67
2019-03-10T17:19:12.950Z,14.55
2019-03-10T17:21:44.078Z,8.68
2019-03-10T17:26:45.671Z,9.40
2019-03-10T17:29:16.889Z,6.33
2019-03-10T17:31:49.020Z,8.15
2019-03-10T17:34:20.165Z,5.70
2019-03-10T17:36:52.316Z,9.25
2019-03-10T17:39:23.451Z,7.72
2019-03-10T17:41:54.626Z,6.05
2019-03-10T17:44:27.391Z,10.05
2019-03-10T17:46:58.587Z,6.17
2019-03-10T17:49:29.934Z,9.38
2019-03-10T17:52:01.065Z,11.80
2019-03-10T17:54:33.987Z,10.30
2019-03-10T17:57:05.153Z,13.08
2019-03-10T17:59:36.310Z,8.88
2019-03-10T18:02:09.348Z,6.80
2019-03-10T18:04:40.262Z,9.23
2019-03-10T18:07:11.380Z,5.78
2019-03-10T18:09:43.663Z,8.80
2019-03-10T18:12:14.978Z,11.15
2019-03-10T18:14:46.049Z,7.58
2019-03-10T18:17:17.620Z,7.85
2019-03-10T18:19:48.800Z,9.60
2019-03-10T18:22:21.167Z,21.35
2019-03-10T18:24:52.354Z,10.60
2019-03-10T18:27:23.524Z,12.03
2019-03-10T18:29:54.787Z,10.93
2019-03-10T18:32:28.012Z,12.88
2019-03-10T18:34:59.350Z,14.78
2019-03-10T18:37:33.002Z,12.13
2019-03-10T18:40:05.081Z,13.68
2019-03-10T18:42:36.262Z,13.62
2019-03-10T18:45:10.675Z,8.18
2019-03-10T18:47:43.385Z,17.45
2019-03-10T18:50:18.946Z,11.45
2019-03-10T18:52:49.959Z,11.30
2019-03-10T18:58:00.123Z,14.75
2019-03-10T19:03:03.078Z,13.13
2019-03-10T19:05:34.283Z,12.98
2019-03-10T19:08:06.108Z,12.85
2019-03-10T19:10:39.432Z,10.08
2019-03-10T19:13:12.053Z,8.08
2019-03-10T19:15:43.268Z,8.78
2019-03-10T19:18:15.936Z,8.30
2019-03-10T19:20:48.916Z,9.43
2019-03-10T19:23:22.877Z,11.30
2019-03-10T19:25:54.070Z,10.10
2019-03-10T19:28:25.277Z,7.10
2019-03-10T19:31:17.189Z,10.00
2019-03-10T19:33:50.653Z,9.70
2019-03-10T19:36:21.844Z,10.03
2019-03-10T19:38:52.940Z,7.95
2019-03-10T19:41:24.183Z,7.47
2019-03-10T19:43:55.307Z,8.80
2019-03-10T19:46:26.521Z,12.65
2019-03-10T19:48:59.188Z,6.47
2019-03-10T19:51:30.526Z,14.07
2019-03-10T19:54:01.669Z,6.47
2019-03-10T19:56:32.902Z,7.50
2019-03-10T19:59:05.042Z,12.60
2019-03-10T20:01:37.902Z,9.70
2019-03-10T20:04:09.091Z,9.30
2019-03-10T20:06:40.280Z,12.37
2019-03-10T20:09:11.445Z,13.70
2019-03-10T20:11:42.802Z,11.93
2019-03-10T20:14:13.894Z,13.25
2019-03-10T20:19:16.750Z,11.73
2019-03-10T20:21:48.948Z,15.35
2019-03-10T20:24:20.195Z,11.08
2019-03-10T20:26:53.049Z,17.12
2019-03-10T20:29:24.223Z,14.73
2019-03-10T20:34:25.814Z,14.18
2019-03-10T20:36:56.960Z,12.93
2019-03-10T20:39:29.705Z,13.15
2019-03-10T20:42:04.986Z,13.90
2019-03-10T20:44:35.219Z,12.43
2019-03-10T20:47:06.532Z,15.15
2019-03-10T20:49:38.740Z,15.88
2019-03-10T20:52:10.027Z,13.90
2019-03-10T20:54:42.497Z,14.03
2019-03-10T20:57:13.728Z,12.78
2019-03-10T20:59:44.811Z,12.23
2019-03-10T21:02:16.684Z,13.13
2019-03-10T21:04:47.815Z,11.30
2019-03-10T21:07:19.055Z,12.68
2019-03-10T21:09:50.181Z,15.05
2019-03-10T21:14:51.604Z,14.53
2019-03-10T21:17:22.689Z,14.20
2019-03-10T21:22:24.249Z,15.57
2019-03-10T21:24:57.311Z,13.18
2019-03-10T21:27:28.485Z,14.10
2019-03-10T21:29:59.622Z,14.75
2019-03-10T21:32:31.921Z,14.40
2019-03-10T21:35:03.063Z,17.90
2019-03-10T21:37:35.821Z,11.65
2019-03-10T21:40:10.039Z,15.90
2019-03-10T21:42:41.329Z,13.95
2019-03-10T21:45:12.524Z,14.65
2019-03-10T21:47:43.712Z,13.38
2019-03-10T21:50:16.162Z,16.90
2019-03-10T21:52:48.336Z,14.30
2019-03-10T21:55:19.479Z,19.67
2019-03-10T21:57:51.711Z,13.85
2019-03-10T22:00:22.847Z,18.05
2019-03-10T22:02:54.910Z,12.85
2019-03-10T22:05:26.683Z,15.32
2019-03-10T22:07:57.825Z,14.58
2019-03-10T22:10:29.731Z,13.20
2019-03-10T22:13:00.901Z,12.68
2019-03-10T22:15:41.070Z,14.95
2019-03-10T22:18:05.864Z,12.85
2019-03-10T22:20:37.034Z,13.88
2019-03-10T22:23:08.301Z,19.48
2019-03-10T22:25:41.003Z,12.30
2019-03-10T22:28:12.158Z,14.25
2019-03-10T22:30:44.675Z,15.23
2019-03-10T22:35:48.357Z,10.70
2019-03-10T22:40:51.122Z,11.18
2019-03-10T22:43:22.368Z,10.18
2019-03-10T22:45:55.662Z,10.85
2019-03-10T22:48:26.851Z,10.82
2019-03-10T22:50:59.482Z,10.48
2019-03-10T22:55:56.262Z,12.47
2019-03-10T22:58:27.398Z,9.85
2019-03-10T23:00:58.661Z,14.23
2019-03-10T23:03:30.270Z,10.88
2019-03-10T23:06:01.459Z,12.10
2019-03-10T23:08:32.602Z,11.38
2019-03-10T23:11:03.769Z,12.93
2019-03-10T23:13:34.899Z,13.40
2019-03-10T23:16:06.063Z,10.70
2019-03-10T23:18:37.239Z,17.12
2019-03-10T23:21:08.391Z,10.50
2019-03-10T23:23:39.591Z,10.08
2019-03-10T23:26:11.779Z,9.73
2019-03-10T23:28:42.951Z,15.28
2019-03-10T23:31:14.227Z,14.10
2019-03-10T23:33:45.654Z,11.45
2019-03-10T23:36:16.896Z,12.58
2019-03-10T23:38:48.255Z,10.15
2019-03-10T23:41:19.368Z,12.65
2019-03-10T23:43:50.575Z,14.28
2019-03-10T23:46:21.775Z,15.68
2019-03-10T23:48:52.944Z,10.68
2019-03-10T23:53:54.658Z,13.85
2019-03-10T23:56:25.779Z,12.53
2019-03-10T23:58:56.929Z,12.30
